sensor_id;sensor_type;location;lat;lon;timestamp;temperature;humidity
62912;DHT22;49111;51.028;4.218;2023-04-03T00:01:02;5.40;99.90
62912;DHT22;49111;51.028;4.218;2023-04-03T00:03:28;5.40;99.90
62912;DHT22;49111;51.028;4.218;2023-04-03T00:05:54;5.40;99.90
62912;DHT22;49111;51.028;4.218;2023-04-03T00:08:21;5.40;99.90
62912;DHT22;49111;51.028;4.218;2023-04-03T00:10:47;5.40;99.90
62912;DHT22;49111;51.028;4.218;2023-04-03T00:13:12;5.40;99.90
62912;DHT22;49111;51.028;4.218;2023-04-03T00:15:39;5.50;99.90
62912;DHT22;49111;51.028;4.218;2023-04-03T00:18:05;5.50;99.90
62912;DHT22;49111;51.028;4.218;2023-04-03T00:20:32;5.50;99.90
62912;DHT22;49111;51.028;4.218;2023-04-03T00:22:58;5.50;99.90
62912;DHT22;49111;51.028;4.218;2023-04-03T00:25:24;5.40;99.90
62912;DHT22;49111;51.028;4.218;2023-04-03T00:27:49;5.40;99.90
62912;DHT22;49111;51.028;4.218;2023-04-03T00:30:17;5.40;99.90
62912;DHT22;49111;51.028;4.218;2023-04-03T00:32:43;5.40;99.90
62912;DHT22;49111;51.028;4.218;2023-04-03T00:35:10;5.40;99.90
62912;DHT22;49111;51.028;4.218;2023-04-03T00:37:36;5.30;99.90
62912;DHT22;49111;51.028;4.218;2023-04-03T00:40:03;5.30;99.90
62912;DHT22;49111;51.028;4.218;2023-04-03T00:42:29;5.30;99.90
62912;DHT22;49111;51.028;4.218;2023-04-03T00:47:21;5.30;99.90
62912;DHT22;49111;51.028;4.218;2023-04-03T00:49:49;5.20;99.90
62912;DHT22;49111;51.028;4.218;2023-04-03T00:52:19;5.20;99.90
62912;DHT22;49111;51.028;4.218;2023-04-03T00:54:49;5.20;99.90
62912;DHT22;49111;51.028;4.218;2023-04-03T00:57:17;5.20;99.90
62912;DHT22;49111;51.028;4.218;2023-04-03T00:59:46;5.30;99.90
62912;DHT22;49111;51.028;4.218;2023-04-03T01:02:15;5.20;99.90
62912;DHT22;49111;51.028;4.218;2023-04-03T01:04:43;5.30;99.90
62912;DHT22;49111;51.028;4.218;2023-04-03T01:07:12;5.20;99.90
62912;DHT22;49111;51.028;4.218;2023-04-03T01:09:40;5.20;99.90
62912;DHT22;49111;51.028;4.218;2023-04-03T01:14:44;5.20;99.90
62912;DHT22;49111;51.028;4.218;2023-04-03T01:25:59;5.20;99.90
62912;DHT22;49111;51.028;4.218;2023-04-03T01:28:34;5.20;99.90
62912;DHT22;49111;51.028;4.218;2023-04-03T01:31:40;5.20;99.90
62912;DHT22;49111;51.028;4.218;2023-04-03T01:34:06;5.10;99.90
62912;DHT22;49111;51.028;4.218;2023-04-03T01:36:32;5.10;99.90
62912;DHT22;49111;51.028;4.218;2023-04-03T01:38:59;5.10;99.90
62912;DHT22;49111;51.028;4.218;2023-04-03T01:41:27;5.10;99.90
62912;DHT22;49111;51.028;4.218;2023-04-03T01:44:00;5.10;99.90
62912;DHT22;49111;51.028;4.218;2023-04-03T01:46:26;5.10;99.90
62912;DHT22;49111;51.028;4.218;2023-04-03T01:48:52;5.10;99.90
62912;DHT22;49111;51.028;4.218;2023-04-03T01:51:17;5.10;99.90
62912;DHT22;49111;51.028;4.218;2023-04-03T01:53:43;5.10;99.90
62912;DHT22;49111;51.028;4.218;2023-04-03T01:56:09;5.10;99.90
62912;DHT22;49111;51.028;4.218;2023-04-03T01:58:35;5.10;99.90
62912;DHT22;49111;51.028;4.218;2023-04-03T02:01:01;5.10;99.90
62912;DHT22;49111;51.028;4.218;2023-04-03T02:03:28;5.10;99.90
62912;DHT22;49111;51.028;4.218;2023-04-03T02:05:54;5.10;99.90
62912;DHT22;49111;51.028;4.218;2023-04-03T02:08:20;5.10;99.90
62912;DHT22;49111;51.028;4.218;2023-04-03T02:10:49;5.00;99.90
62912;DHT22;49111;51.028;4.218;2023-04-03T02:13:17;5.00;99.90
62912;DHT22;49111;51.028;4.218;2023-04-03T02:15:44;5.00;99.90
62912;DHT22;49111;51.028;4.218;2023-04-03T02:18:11;5.00;99.90
62912;DHT22;49111;51.028;4.218;2023-04-03T02:20:37;5.00;99.90
62912;DHT22;49111;51.028;4.218;2023-04-03T02:23:04;5.00;99.90
62912;DHT22;49111;51.028;4.218;2023-04-03T02:25:32;5.00;99.90
62912;DHT22;49111;51.028;4.218;2023-04-03T02:27:58;5.00;99.90
62912;DHT22;49111;51.028;4.218;2023-04-03T02:30:24;4.90;99.90
62912;DHT22;49111;51.028;4.218;2023-04-03T02:32:50;4.90;99.90
62912;DHT22;49111;51.028;4.218;2023-04-03T02:35:16;4.90;99.90
62912;DHT22;49111;51.028;4.218;2023-04-03T02:37:42;4.90;99.90
62912;DHT22;49111;51.028;4.218;2023-04-03T02:40:09;4.90;99.90
62912;DHT22;49111;51.028;4.218;2023-04-03T02:42:35;4.90;99.90
62912;DHT22;49111;51.028;4.218;2023-04-03T02:45:02;4.90;99.90
62912;DHT22;49111;51.028;4.218;2023-04-03T02:47:28;4.90;99.90
62912;DHT22;49111;51.028;4.218;2023-04-03T02:49:54;4.90;99.90
62912;DHT22;49111;51.028;4.218;2023-04-03T02:52:21;4.80;99.90
62912;DHT22;49111;51.028;4.218;2023-04-03T02:54:48;4.80;99.90
62912;DHT22;49111;51.028;4.218;2023-04-03T02:57:14;4.80;99.90
62912;DHT22;49111;51.028;4.218;2023-04-03T02:59:40;4.80;99.90
62912;DHT22;49111;51.028;4.218;2023-04-03T03:02:08;4.80;99.90
62912;DHT22;49111;51.028;4.218;2023-04-03T03:04:34;4.80;99.90
62912;DHT22;49111;51.028;4.218;2023-04-03T03:07:00;4.80;99.90
62912;DHT22;49111;51.028;4.218;2023-04-03T03:09:28;4.70;99.90
62912;DHT22;49111;51.028;4.218;2023-04-03T03:11:55;4.70;99.90
62912;DHT22;49111;51.028;4.218;2023-04-03T03:14:22;4.70;99.90
62912;DHT22;49111;51.028;4.218;2023-04-03T03:16:47;4.70;99.90
62912;DHT22;49111;51.028;4.218;2023-04-03T03:19:13;4.60;99.90
62912;DHT22;49111;51.028;4.218;2023-04-03T03:21:39;4.70;99.90
62912;DHT22;49111;51.028;4.218;2023-04-03T03:24:06;4.60;99.90
62912;DHT22;49111;51.028;4.218;2023-04-03T03:26:32;4.60;99.90
62912;DHT22;49111;51.028;4.218;2023-04-03T03:28:58;4.60;99.90
62912;DHT22;49111;51.028;4.218;2023-04-03T03:31:24;4.60;99.90
62912;DHT22;49111;51.028;4.218;2023-04-03T03:33:50;4.50;99.90
62912;DHT22;49111;51.028;4.218;2023-04-03T03:36:16;4.50;99.90
62912;DHT22;49111;51.028;4.218;2023-04-03T03:38:42;4.50;99.90
62912;DHT22;49111;51.028;4.218;2023-04-03T03:41:09;4.40;99.90
62912;DHT22;49111;51.028;4.218;2023-04-03T03:43:35;4.40;99.90
62912;DHT22;49111;51.028;4.218;2023-04-03T03:46:02;4.30;99.90
62912;DHT22;49111;51.028;4.218;2023-04-03T03:48:28;4.30;99.90
62912;DHT22;49111;51.028;4.218;2023-04-03T03:50:55;4.30;99.90
62912;DHT22;49111;51.028;4.218;2023-04-03T03:53:25;4.30;99.90
62912;DHT22;49111;51.028;4.218;2023-04-03T03:55:55;4.30;99.90
62912;DHT22;49111;51.028;4.218;2023-04-03T03:58:23;4.30;99.90
62912;DHT22;49111;51.028;4.218;2023-04-03T04:00:49;4.30;99.90
62912;DHT22;49111;51.028;4.218;2023-04-03T04:03:15;4.30;99.90
62912;DHT22;49111;51.028;4.218;2023-04-03T04:05:44;4.20;99.90
62912;DHT22;49111;51.028;4.218;2023-04-03T04:08:09;4.20;99.90
62912;DHT22;49111;51.028;4.218;2023-04-03T04:10:37;4.20;99.90
62912;DHT22;49111;51.028;4.218;2023-04-03T04:13:03;4.20;99.90
62912;DHT22;49111;51.028;4.218;2023-04-03T04:15:30;4.10;99.90
62912;DHT22;49111;51.028;4.218;2023-04-03T04:17:56;4.20;99.90
62912;DHT22;49111;51.028;4.218;2023-04-03T04:20:22;4.10;99.90
62912;DHT22;49111;51.028;4.218;2023-04-03T04:22:48;4.10;99.90
62912;DHT22;49111;51.028;4.218;2023-04-03T04:25:16;4.10;99.90
62912;DHT22;49111;51.028;4.218;2023-04-03T04:27:41;4.10;99.90
62912;DHT22;49111;51.028;4.218;2023-04-03T04:30:08;4.10;99.90
62912;DHT22;49111;51.028;4.218;2023-04-03T04:32:34;4.10;99.90
62912;DHT22;49111;51.028;4.218;2023-04-03T04:35:01;4.10;99.90
62912;DHT22;49111;51.028;4.218;2023-04-03T04:37:29;4.10;99.90
62912;DHT22;49111;51.028;4.218;2023-04-03T04:39:55;4.10;99.90
62912;DHT22;49111;51.028;4.218;2023-04-03T04:42:21;4.10;99.90
62912;DHT22;49111;51.028;4.218;2023-04-03T04:44:48;4.10;99.90
62912;DHT22;49111;51.028;4.218;2023-04-03T04:47:15;4.10;99.90
62912;DHT22;49111;51.028;4.218;2023-04-03T04:49:41;4.10;99.90
62912;DHT22;49111;51.028;4.218;2023-04-03T04:52:07;4.10;99.90
62912;DHT22;49111;51.028;4.218;2023-04-03T04:54:34;4.10;99.90
62912;DHT22;49111;51.028;4.218;2023-04-03T04:57:04;4.00;99.90
62912;DHT22;49111;51.028;4.218;2023-04-03T04:59:30;4.00;99.90
62912;DHT22;49111;51.028;4.218;2023-04-03T05:01:57;4.00;99.90
62912;DHT22;49111;51.028;4.218;2023-04-03T05:04:23;4.00;99.90
62912;DHT22;49111;51.028;4.218;2023-04-03T05:06:54;4.00;99.90
62912;DHT22;49111;51.028;4.218;2023-04-03T05:09:23;4.00;99.90
62912;DHT22;49111;51.028;4.218;2023-04-03T05:11:50;3.90;99.90
62912;DHT22;49111;51.028;4.218;2023-04-03T05:14:18;3.90;99.90
62912;DHT22;49111;51.028;4.218;2023-04-03T05:16:45;3.90;99.90
62912;DHT22;49111;51.028;4.218;2023-04-03T05:19:16;3.90;99.90
62912;DHT22;49111;51.028;4.218;2023-04-03T05:21:41;3.90;99.90
62912;DHT22;49111;51.028;4.218;2023-04-03T05:24:11;3.90;99.90
62912;DHT22;49111;51.028;4.218;2023-04-03T05:26:40;3.80;99.90
62912;DHT22;49111;51.028;4.218;2023-04-03T05:29:06;3.90;99.90
62912;DHT22;49111;51.028;4.218;2023-04-03T05:31:33;3.90;99.90
62912;DHT22;49111;51.028;4.218;2023-04-03T05:33:58;3.80;99.90
62912;DHT22;49111;51.028;4.218;2023-04-03T05:36:29;3.90;99.90
62912;DHT22;49111;51.028;4.218;2023-04-03T05:39:00;3.90;99.90
62912;DHT22;49111;51.028;4.218;2023-04-03T05:41:26;3.90;99.90
62912;DHT22;49111;51.028;4.218;2023-04-03T05:43:52;3.90;99.90
62912;DHT22;49111;51.028;4.218;2023-04-03T05:46:20;3.90;99.90
62912;DHT22;49111;51.028;4.218;2023-04-03T05:48:50;4.00;99.90
62912;DHT22;49111;51.028;4.218;2023-04-03T05:51:24;4.00;99.90
62912;DHT22;49111;51.028;4.218;2023-04-03T05:53:59;3.90;99.90
62912;DHT22;49111;51.028;4.218;2023-04-03T05:56:28;4.00;99.90
62912;DHT22;49111;51.028;4.218;2023-04-03T05:58:54;3.90;99.90
62912;DHT22;49111;51.028;4.218;2023-04-03T06:01:21;4.00;99.90
62912;DHT22;49111;51.028;4.218;2023-04-03T06:03:47;3.90;99.90
62912;DHT22;49111;51.028;4.218;2023-04-03T06:06:13;4.00;99.90
62912;DHT22;49111;51.028;4.218;2023-04-03T06:08:40;4.00;99.90
62912;DHT22;49111;51.028;4.218;2023-04-03T06:11:05;4.00;99.90
62912;DHT22;49111;51.028;4.218;2023-04-03T06:13:33;4.00;99.90
62912;DHT22;49111;51.028;4.218;2023-04-03T06:16:01;4.00;99.90
62912;DHT22;49111;51.028;4.218;2023-04-03T06:18:27;4.00;99.90
62912;DHT22;49111;51.028;4.218;2023-04-03T06:20:54;4.00;99.90
62912;DHT22;49111;51.028;4.218;2023-04-03T06:23:19;4.10;99.90
62912;DHT22;49111;51.028;4.218;2023-04-03T06:25:46;4.00;99.90
62912;DHT22;49111;51.028;4.218;2023-04-03T06:28:12;4.20;99.90
62912;DHT22;49111;51.028;4.218;2023-04-03T06:30:38;4.10;99.90
62912;DHT22;49111;51.028;4.218;2023-04-03T06:33:04;4.20;99.90
62912;DHT22;49111;51.028;4.218;2023-04-03T06:35:30;4.20;99.90
62912;DHT22;49111;51.028;4.218;2023-04-03T06:37:56;4.20;99.90
62912;DHT22;49111;51.028;4.218;2023-04-03T06:40:24;4.30;99.90
62912;DHT22;49111;51.028;4.218;2023-04-03T06:42:51;4.30;99.90
62912;DHT22;49111;51.028;4.218;2023-04-03T06:45:19;4.40;99.90
62912;DHT22;49111;51.028;4.218;2023-04-03T06:47:45;4.50;99.90
62912;DHT22;49111;51.028;4.218;2023-04-03T06:50:11;4.50;99.90
62912;DHT22;49111;51.028;4.218;2023-04-03T06:52:40;4.60;99.90
62912;DHT22;49111;51.028;4.218;2023-04-03T06:55:06;4.60;99.90
62912;DHT22;49111;51.028;4.218;2023-04-03T06:57:32;4.70;99.90
62912;DHT22;49111;51.028;4.218;2023-04-03T06:59:58;4.70;99.90
62912;DHT22;49111;51.028;4.218;2023-04-03T07:02:24;4.70;99.90
62912;DHT22;49111;51.028;4.218;2023-04-03T07:04:49;4.70;99.90
62912;DHT22;49111;51.028;4.218;2023-04-03T07:07:15;4.80;99.90
62912;DHT22;49111;51.028;4.218;2023-04-03T07:09:43;4.80;99.90
62912;DHT22;49111;51.028;4.218;2023-04-03T07:12:09;4.80;99.90
62912;DHT22;49111;51.028;4.218;2023-04-03T07:14:34;4.90;99.90
62912;DHT22;49111;51.028;4.218;2023-04-03T07:17:00;4.90;99.90
62912;DHT22;49111;51.028;4.218;2023-04-03T07:19:26;5.00;99.90
62912;DHT22;49111;51.028;4.218;2023-04-03T07:21:53;5.00;99.90
62912;DHT22;49111;51.028;4.218;2023-04-03T07:24:20;5.10;99.90
62912;DHT22;49111;51.028;4.218;2023-04-03T07:26:49;5.20;99.90
62912;DHT22;49111;51.028;4.218;2023-04-03T07:29:16;5.30;99.90
62912;DHT22;49111;51.028;4.218;2023-04-03T07:31:42;5.20;99.90
62912;DHT22;49111;51.028;4.218;2023-04-03T07:34:10;5.30;99.90
62912;DHT22;49111;51.028;4.218;2023-04-03T07:36:36;5.30;99.90
62912;DHT22;49111;51.028;4.218;2023-04-03T07:39:03;5.40;99.90
62912;DHT22;49111;51.028;4.218;2023-04-03T07:41:29;5.40;99.90
62912;DHT22;49111;51.028;4.218;2023-04-03T07:43:56;5.50;99.90
62912;DHT22;49111;51.028;4.218;2023-04-03T07:46:22;5.60;99.90
62912;DHT22;49111;51.028;4.218;2023-04-03T07:48:48;5.60;99.90
62912;DHT22;49111;51.028;4.218;2023-04-03T07:51:14;5.70;99.90
62912;DHT22;49111;51.028;4.218;2023-04-03T07:53:40;5.70;99.90
62912;DHT22;49111;51.028;4.218;2023-04-03T07:56:06;5.80;99.90
62912;DHT22;49111;51.028;4.218;2023-04-03T07:58:32;5.80;99.90
62912;DHT22;49111;51.028;4.218;2023-04-03T08:00:59;5.90;99.90
62912;DHT22;49111;51.028;4.218;2023-04-03T08:03:25;6.00;99.90
62912;DHT22;49111;51.028;4.218;2023-04-03T08:05:51;6.00;99.90
62912;DHT22;49111;51.028;4.218;2023-04-03T08:08:22;5.90;99.90
62912;DHT22;49111;51.028;4.218;2023-04-03T08:10:50;5.90;99.90
62912;DHT22;49111;51.028;4.218;2023-04-03T08:13:16;5.90;99.90
62912;DHT22;49111;51.028;4.218;2023-04-03T08:15:42;5.90;99.90
62912;DHT22;49111;51.028;4.218;2023-04-03T08:18:08;6.00;99.90
62912;DHT22;49111;51.028;4.218;2023-04-03T08:20:33;6.10;99.90
62912;DHT22;49111;51.028;4.218;2023-04-03T08:23:00;6.20;99.90
62912;DHT22;49111;51.028;4.218;2023-04-03T08:25:26;6.20;99.90
62912;DHT22;49111;51.028;4.218;2023-04-03T08:27:52;6.30;99.90
62912;DHT22;49111;51.028;4.218;2023-04-03T08:30:18;6.40;99.90
62912;DHT22;49111;51.028;4.218;2023-04-03T08:32:43;6.50;99.90
62912;DHT22;49111;51.028;4.218;2023-04-03T08:35:10;6.60;99.90
62912;DHT22;49111;51.028;4.218;2023-04-03T08:37:37;6.60;99.90
62912;DHT22;49111;51.028;4.218;2023-04-03T08:40:05;6.60;99.90
62912;DHT22;49111;51.028;4.218;2023-04-03T08:45:43;6.70;99.90
62912;DHT22;49111;51.028;4.218;2023-04-03T08:48:24;6.80;99.90
62912;DHT22;49111;51.028;4.218;2023-04-03T08:50:57;6.80;99.90
62912;DHT22;49111;51.028;4.218;2023-04-03T08:53:30;6.80;99.90
62912;DHT22;49111;51.028;4.218;2023-04-03T08:56:02;6.80;99.90
62912;DHT22;49111;51.028;4.218;2023-04-03T08:58:52;7.00;99.90
62912;DHT22;49111;51.028;4.218;2023-04-03T09:03:51;7.10;99.90
62912;DHT22;49111;51.028;4.218;2023-04-03T09:06:25;7.20;99.90
62912;DHT22;49111;51.028;4.218;2023-04-03T09:09:14;7.50;99.90
62912;DHT22;49111;51.028;4.218;2023-04-03T09:17:03;7.80;99.90
62912;DHT22;49111;51.028;4.218;2023-04-03T09:22:26;7.90;99.90
62912;DHT22;49111;51.028;4.218;2023-04-03T09:25:13;8.00;99.90
62912;DHT22;49111;51.028;4.218;2023-04-03T09:27:39;8.10;99.90
62912;DHT22;49111;51.028;4.218;2023-04-03T09:30:06;8.10;99.90
62912;DHT22;49111;51.028;4.218;2023-04-03T09:32:35;8.20;99.90
62912;DHT22;49111;51.028;4.218;2023-04-03T09:35:19;8.30;99.90
62912;DHT22;49111;51.028;4.218;2023-04-03T09:37:48;8.40;99.90
62912;DHT22;49111;51.028;4.218;2023-04-03T09:42:57;8.20;99.90
62912;DHT22;49111;51.028;4.218;2023-04-03T09:45:27;8.20;99.90
62912;DHT22;49111;51.028;4.218;2023-04-03T09:50:52;8.20;99.90
62912;DHT22;49111;51.028;4.218;2023-04-03T09:53:39;8.20;99.90
62912;DHT22;49111;51.028;4.218;2023-04-03T09:58:45;8.50;99.90
62912;DHT22;49111;51.028;4.218;2023-04-03T10:01:30;8.70;99.90
62912;DHT22;49111;51.028;4.218;2023-04-03T10:04:14;8.80;99.90
62912;DHT22;49111;51.028;4.218;2023-04-03T10:06:43;8.90;99.90
62912;DHT22;49111;51.028;4.218;2023-04-03T10:09:28;9.00;99.90
62912;DHT22;49111;51.028;4.218;2023-04-03T10:12:11;9.20;99.90
62912;DHT22;49111;51.028;4.218;2023-04-03T10:15:00;9.20;99.90
62912;DHT22;49111;51.028;4.218;2023-04-03T10:17:37;9.30;99.90
62912;DHT22;49111;51.028;4.218;2023-04-03T10:20:15;9.50;99.90
62912;DHT22;49111;51.028;4.218;2023-04-03T10:26:00;9.40;99.90
62912;DHT22;49111;51.028;4.218;2023-04-03T10:34:31;9.90;99.90
62912;DHT22;49111;51.028;4.218;2023-04-03T10:42:48;10.00;98.10
62912;DHT22;49111;51.028;4.218;2023-04-03T10:45:50;10.20;96.90
62912;DHT22;49111;51.028;4.218;2023-04-03T10:48:48;10.40;96.00
62912;DHT22;49111;51.028;4.218;2023-04-03T10:54:07;10.50;94.20
62912;DHT22;49111;51.028;4.218;2023-04-03T10:56:41;10.60;96.00
62912;DHT22;49111;51.028;4.218;2023-04-03T11:01:53;10.80;95.20
62912;DHT22;49111;51.028;4.218;2023-04-03T11:04:23;10.90;95.80
62912;DHT22;49111;51.028;4.218;2023-04-03T11:07:11;11.00;94.60
62912;DHT22;49111;51.028;4.218;2023-04-03T11:09:41;11.10;94.20
62912;DHT22;49111;51.028;4.218;2023-04-03T11:12:44;11.20;93.00
62912;DHT22;49111;51.028;4.218;2023-04-03T11:15:03;11.20;91.40
62912;DHT22;49111;51.028;4.218;2023-04-03T11:17:41;11.40;91.60
62912;DHT22;49111;51.028;4.218;2023-04-03T11:20:29;11.50;90.00
62912;DHT22;49111;51.028;4.218;2023-04-03T11:23:43;11.50;82.90
62912;DHT22;49111;51.028;4.218;2023-04-03T11:25:54;11.40;79.90
62912;DHT22;49111;51.028;4.218;2023-04-03T11:28:21;11.40;85.10
62912;DHT22;49111;51.028;4.218;2023-04-03T11:35:53;11.50;82.70
62912;DHT22;49111;51.028;4.218;2023-04-03T11:38:25;11.60;86.50
62912;DHT22;49111;51.028;4.218;2023-04-03T11:40:54;11.60;85.00
62912;DHT22;49111;51.028;4.218;2023-04-03T11:46:03;11.90;86.60
62912;DHT22;49111;51.028;4.218;2023-04-03T11:53:40;12.20;82.50
62912;DHT22;49111;51.028;4.218;2023-04-03T12:01:46;12.40;77.30
62912;DHT22;49111;51.028;4.218;2023-04-03T12:04:14;12.40;71.80
62912;DHT22;49111;51.028;4.218;2023-04-03T12:06:42;12.40;76.20
62912;DHT22;49111;51.028;4.218;2023-04-03T12:11:55;12.30;72.70
62912;DHT22;49111;51.028;4.218;2023-04-03T12:14:25;12.40;74.90
62912;DHT22;49111;51.028;4.218;2023-04-03T12:16:56;12.60;75.50
62912;DHT22;49111;51.028;4.218;2023-04-03T12:19:29;12.50;72.00
62912;DHT22;49111;51.028;4.218;2023-04-03T12:24:30;12.80;75.50
62912;DHT22;49111;51.028;4.218;2023-04-03T12:32:47;12.80;67.10
62912;DHT22;49111;51.028;4.218;2023-04-03T12:35:21;12.80;69.10
62912;DHT22;49111;51.028;4.218;2023-04-03T12:43:25;13.10;66.60
62912;DHT22;49111;51.028;4.218;2023-04-03T12:48:38;13.00;61.80
62912;DHT22;49111;51.028;4.218;2023-04-03T12:51:06;12.70;61.20
62912;DHT22;49111;51.028;4.218;2023-04-03T12:53:34;12.80;63.50
62912;DHT22;49111;51.028;4.218;2023-04-03T12:56:22;12.80;63.10
62912;DHT22;49111;51.028;4.218;2023-04-03T12:58:50;12.90;60.30
62912;DHT22;49111;51.028;4.218;2023-04-03T13:01:20;13.00;62.30
62912;DHT22;49111;51.028;4.218;2023-04-03T13:03:53;13.20;61.80
62912;DHT22;49111;51.028;4.218;2023-04-03T13:06:26;13.30;61.10
62912;DHT22;49111;51.028;4.218;2023-04-03T13:08:56;13.40;59.30
62912;DHT22;49111;51.028;4.218;2023-04-03T13:11:25;13.50;61.60
62912;DHT22;49111;51.028;4.218;2023-04-03T13:14:21;13.70;60.80
62912;DHT22;49111;51.028;4.218;2023-04-03T13:17:14;13.70;62.50
62912;DHT22;49111;51.028;4.218;2023-04-03T13:19:41;13.80;58.20
62912;DHT22;49111;51.028;4.218;2023-04-03T13:24:55;13.60;60.10
62912;DHT22;49111;51.028;4.218;2023-04-03T13:27:22;13.80;61.00
62912;DHT22;49111;51.028;4.218;2023-04-03T13:29:53;14.00;61.10
62912;DHT22;49111;51.028;4.218;2023-04-03T13:32:23;14.10;60.00
62912;DHT22;49111;51.028;4.218;2023-04-03T13:34:50;14.10;56.50
62912;DHT22;49111;51.028;4.218;2023-04-03T13:37:25;14.10;60.00
62912;DHT22;49111;51.028;4.218;2023-04-03T13:40:01;14.10;61.50
62912;DHT22;49111;51.028;4.218;2023-04-03T13:42:31;14.10;58.80
62912;DHT22;49111;51.028;4.218;2023-04-03T13:45:16;14.10;59.50
62912;DHT22;49111;51.028;4.218;2023-04-03T13:47:44;14.10;57.90
62912;DHT22;49111;51.028;4.218;2023-04-03T13:50:25;14.20;59.60
62912;DHT22;49111;51.028;4.218;2023-04-03T13:53:01;14.10;58.10
62912;DHT22;49111;51.028;4.218;2023-04-03T13:55:34;14.20;57.60
62912;DHT22;49111;51.028;4.218;2023-04-03T14:03:07;14.10;58.80
62912;DHT22;49111;51.028;4.218;2023-04-03T14:05:39;14.20;60.50
62912;DHT22;49111;51.028;4.218;2023-04-03T14:08:11;14.30;58.50
62912;DHT22;49111;51.028;4.218;2023-04-03T14:10:43;14.30;56.60
62912;DHT22;49111;51.028;4.218;2023-04-03T14:13:15;14.30;56.60
62912;DHT22;49111;51.028;4.218;2023-04-03T14:15:48;14.30;57.20
62912;DHT22;49111;51.028;4.218;2023-04-03T14:18:21;14.30;57.00
62912;DHT22;49111;51.028;4.218;2023-04-03T14:20:52;14.30;58.20
62912;DHT22;49111;51.028;4.218;2023-04-03T14:23:24;14.30;57.70
62912;DHT22;49111;51.028;4.218;2023-04-03T14:25:56;14.10;56.30
62912;DHT22;49111;51.028;4.218;2023-04-03T14:28:31;14.20;57.80
62912;DHT22;49111;51.028;4.218;2023-04-03T14:31:03;14.30;58.70
62912;DHT22;49111;51.028;4.218;2023-04-03T14:33:35;14.40;57.20
62912;DHT22;49111;51.028;4.218;2023-04-03T14:36:20;14.50;56.30
62912;DHT22;49111;51.028;4.218;2023-04-03T14:38:53;14.50;58.00
62912;DHT22;49111;51.028;4.218;2023-04-03T14:41:26;14.20;57.90
62912;DHT22;49111;51.028;4.218;2023-04-03T14:43:58;14.30;56.40
62912;DHT22;49111;51.028;4.218;2023-04-03T14:46:40;14.40;56.10
62912;DHT22;49111;51.028;4.218;2023-04-03T14:49:20;14.40;56.30
62912;DHT22;49111;51.028;4.218;2023-04-03T14:51:52;14.30;55.10
62912;DHT22;49111;51.028;4.218;2023-04-03T14:54:24;14.40;57.40
62912;DHT22;49111;51.028;4.218;2023-04-03T14:56:58;14.50;56.10
62912;DHT22;49111;51.028;4.218;2023-04-03T14:59:31;14.40;54.70
62912;DHT22;49111;51.028;4.218;2023-04-03T15:04:59;14.30;55.60
62912;DHT22;49111;51.028;4.218;2023-04-03T15:07:39;14.30;54.20
62912;DHT22;49111;51.028;4.218;2023-04-03T15:12:47;14.20;55.70
62912;DHT22;49111;51.028;4.218;2023-04-03T15:15:20;14.30;55.40
62912;DHT22;49111;51.028;4.218;2023-04-03T15:17:54;14.30;53.10
62912;DHT22;49111;51.028;4.218;2023-04-03T15:20:28;14.40;55.30
62912;DHT22;49111;51.028;4.218;2023-04-03T15:23:02;14.50;55.00
62912;DHT22;49111;51.028;4.218;2023-04-03T15:25:35;14.60;55.00
62912;DHT22;49111;51.028;4.218;2023-04-03T15:28:13;14.80;56.60
62912;DHT22;49111;51.028;4.218;2023-04-03T15:30:49;14.80;53.10
62912;DHT22;49111;51.028;4.218;2023-04-03T15:33:22;14.70;52.80
62912;DHT22;49111;51.028;4.218;2023-04-03T15:35:54;14.60;51.70
62912;DHT22;49111;51.028;4.218;2023-04-03T15:38:26;14.30;52.10
62912;DHT22;49111;51.028;4.218;2023-04-03T15:40:58;14.50;53.10
62912;DHT22;49111;51.028;4.218;2023-04-03T15:43:30;14.50;54.20
62912;DHT22;49111;51.028;4.218;2023-04-03T15:46:03;14.70;56.60
62912;DHT22;49111;51.028;4.218;2023-04-03T15:48:36;14.80;53.80
62912;DHT22;49111;51.028;4.218;2023-04-03T15:51:08;14.60;51.60
62912;DHT22;49111;51.028;4.218;2023-04-03T15:53:39;14.40;51.80
62912;DHT22;49111;51.028;4.218;2023-04-03T15:56:12;14.50;53.10
62912;DHT22;49111;51.028;4.218;2023-04-03T15:58:44;14.50;52.40
62912;DHT22;49111;51.028;4.218;2023-04-03T16:01:16;14.40;52.10
62912;DHT22;49111;51.028;4.218;2023-04-03T16:03:48;14.50;53.90
62912;DHT22;49111;51.028;4.218;2023-04-03T16:06:20;14.50;52.40
62912;DHT22;49111;51.028;4.218;2023-04-03T16:08:52;14.50;51.40
62912;DHT22;49111;51.028;4.218;2023-04-03T16:11:27;14.50;52.50
62912;DHT22;49111;51.028;4.218;2023-04-03T16:13:59;14.50;51.90
62912;DHT22;49111;51.028;4.218;2023-04-03T16:16:30;14.50;52.40
62912;DHT22;49111;51.028;4.218;2023-04-03T16:19:04;14.50;51.70
62912;DHT22;49111;51.028;4.218;2023-04-03T16:21:36;14.50;53.60
62912;DHT22;49111;51.028;4.218;2023-04-03T16:24:08;14.50;51.90
62912;DHT22;49111;51.028;4.218;2023-04-03T16:26:40;14.30;51.10
62912;DHT22;49111;51.028;4.218;2023-04-03T16:29:12;14.20;52.20
62912;DHT22;49111;51.028;4.218;2023-04-03T16:31:44;14.30;54.40
62912;DHT22;49111;51.028;4.218;2023-04-03T16:34:16;14.10;51.80
62912;DHT22;49111;51.028;4.218;2023-04-03T16:36:48;14.10;52.20
62912;DHT22;49111;51.028;4.218;2023-04-03T16:39:21;14.20;54.10
62912;DHT22;49111;51.028;4.218;2023-04-03T16:41:53;14.20;54.00
62912;DHT22;49111;51.028;4.218;2023-04-03T16:44:25;14.10;54.00
62912;DHT22;49111;51.028;4.218;2023-04-03T16:46:57;14.20;53.30
62912;DHT22;49111;51.028;4.218;2023-04-03T16:49:29;14.20;53.90
62912;DHT22;49111;51.028;4.218;2023-04-03T16:52:04;14.20;54.40
62912;DHT22;49111;51.028;4.218;2023-04-03T16:54:36;14.20;53.80
62912;DHT22;49111;51.028;4.218;2023-04-03T16:57:08;13.80;53.40
62912;DHT22;49111;51.028;4.218;2023-04-03T16:59:39;13.70;54.30
62912;DHT22;49111;51.028;4.218;2023-04-03T17:02:11;13.60;55.20
62912;DHT22;49111;51.028;4.218;2023-04-03T17:04:43;13.50;55.40
62912;DHT22;49111;51.028;4.218;2023-04-03T17:07:15;13.40;54.90
62912;DHT22;49111;51.028;4.218;2023-04-03T17:09:47;13.50;56.40
62912;DHT22;49111;51.028;4.218;2023-04-03T17:12:20;13.40;56.00
62912;DHT22;49111;51.028;4.218;2023-04-03T17:14:52;13.40;56.40
62912;DHT22;49111;51.028;4.218;2023-04-03T17:17:25;13.40;56.70
62912;DHT22;49111;51.028;4.218;2023-04-03T17:19:57;13.30;56.20
62912;DHT22;49111;51.028;4.218;2023-04-03T17:22:29;12.90;56.40
62912;DHT22;49111;51.028;4.218;2023-04-03T17:25:02;12.80;57.50
62912;DHT22;49111;51.028;4.218;2023-04-03T17:27:34;12.60;57.10
62912;DHT22;49111;51.028;4.218;2023-04-03T17:30:06;12.30;57.90
62912;DHT22;49111;51.028;4.218;2023-04-03T17:32:38;12.20;58.50
62912;DHT22;49111;51.028;4.218;2023-04-03T17:35:10;11.90;58.80
62912;DHT22;49111;51.028;4.218;2023-04-03T17:37:42;11.90;59.00
62912;DHT22;49111;51.028;4.218;2023-04-03T17:40:13;11.80;59.10
62912;DHT22;49111;51.028;4.218;2023-04-03T17:42:52;11.50;58.70
62912;DHT22;49111;51.028;4.218;2023-04-03T17:45:23;11.50;59.30